Time;durP1;ratioP1;P1;durP2;ratioP2;P2;SDS_P1;SDS_P2;PMS_P1;PMS_P2;Temp;Humidity;BMP_temperature;BMP_pressure;BME280_temperature;BME280_humidity;BME280_pressure;Samples;Min_cycle;Max_cycle;Signal;HPM_P1;HPM_P2
2023/01/07 00:01:23;;;;;;;7.33;6.63;;;5.10;99.90;;;;;;4990643;28;20463;-55
2023/01/07 00:03:51;;;;;;;8.07;7.27;;;5.10;99.90;;;;;;4990959;28;20499;-55
2023/01/07 00:06:20;;;;;;;9.03;6.60;;;5.00;99.90;;;;;;4995868;28;20487;-55
2023/01/07 00:08:49;;;;;;;6.90;6.40;;;5.00;99.90;;;;;;4996708;28;20475;-55
2023/01/07 00:11:18;;;;;;;7.70;6.93;;;5.00;99.90;;;;;;4993435;28;20463;-55
2023/01/07 00:13:46;;;;;;;6.33;5.83;;;4.90;98.70;;;;;;5001162;28;20469;-56
2023/01/07 00:16:14;;;;;;;7.13;6.13;;;5.00;99.90;;;;;;4993504;28;20463;-56
2023/01/07 00:18:41;;;;;;;7.43;6.83;;;5.00;94.40;;;;;;4995477;28;20487;-55
2023/01/07 00:21:10;;;;;;;7.40;6.73;;;4.90;94.70;;;;;;4995571;28;20542;-55
2023/01/07 00:23:38;;;;;;;7.30;6.70;;;5.00;99.40;;;;;;4995361;28;20455;-54
2023/01/07 00:26:08;;;;;;;7.83;7.13;;;5.00;95.30;;;;;;4997065;28;20644;-55
2023/01/07 00:28:36;;;;;;;7.13;6.53;;;5.00;95.00;;;;;;4997047;28;21170;-55
2023/01/07 00:31:04;;;;;;;7.37;6.70;;;5.00;97.60;;;;;;4998906;28;20472;-56
2023/01/07 00:33:34;;;;;;;7.37;6.77;;;5.00;96.90;;;;;;4996727;28;20530;-55
2023/01/07 00:36:00;;;;;;;8.33;7.30;;;4.90;94.20;;;;;;4999125;28;20471;-55
2023/01/07 00:38:27;;;;;;;6.90;6.30;;;5.00;91.50;;;;;;5007216;28;21085;-56
2023/01/07 00:40:54;;;;;;;8.40;6.90;;;4.90;91.80;;;;;;5006991;28;20450;-56
2023/01/07 00:43:22;;;;;;;5.70;5.30;;;5.00;87.60;;;;;;5000742;28;21044;-56
2023/01/07 00:45:49;;;;;;;7.63;7.03;;;5.00;90.80;;;;;;4999631;28;20537;-56
2023/01/07 00:48:17;;;;;;;7.17;6.47;;;4.90;88.30;;;;;;5011508;28;20531;-56
2023/01/07 00:50:44;;;;;;;6.70;6.20;;;5.10;72.50;;;;;;5008196;28;20902;-54
2023/01/07 00:53:12;;;;;;;7.10;6.37;;;5.10;75.80;;;;;;4997065;28;20459;-56
2023/01/07 00:55:39;;;;;;;7.50;6.73;;;5.20;21.20;;;;;;4993904;28;20523;-56
2023/01/07 00:58:06;;;;;;;6.77;6.03;;;5.30;22.80;;;;;;5004273;28;21055;-55
2023/01/07 01:00:34;;;;;;;6.93;6.20;;;5.40;22.10;;;;;;4994248;28;20468;-56
2023/01/07 01:03:00;;;;;;;7.50;5.83;;;5.40;22.00;;;;;;4996830;28;20471;-55
2023/01/07 01:05:27;;;;;;;8.23;6.80;;;5.40;21.50;;;;;;4995502;28;20538;-55
2023/01/07 01:07:53;;;;;;;6.10;5.70;;;5.30;21.20;;;;;;4993837;28;20486;-56
2023/01/07 01:10:20;;;;;;;6.93;5.80;;;5.30;20.40;;;;;;4995231;28;20464;-56
2023/01/07 01:12:48;;;;;;;9.60;6.77;;;5.20;20.60;;;;;;5006509;28;20599;-57
2023/01/07 01:15:15;;;;;;;9.50;7.97;;;5.20;20.90;;;;;;5001401;28;20935;-55
2023/01/07 01:17:43;;;;;;;6.90;6.20;;;5.20;72.00;;;;;;4993899;28;20481;-56
2023/01/07 01:20:13;;;;;;;12.00;7.80;;;5.20;73.70;;;;;;4994523;28;20471;-55
2023/01/07 01:22:40;;;;;;;7.80;7.00;;;5.10;74.30;;;;;;4988974;28;20524;-56
2023/01/07 01:25:08;;;;;;;6.53;5.93;;;5.00;74.90;;;;;;5009637;28;20529;-56
2023/01/07 01:27:34;;;;;;;8.07;7.00;;;5.00;72.90;;;;;;4993492;28;20523;-55
2023/01/07 01:30:01;;;;;;;8.10;7.30;;;5.00;21.60;;;;;;5000398;28;20498;-55
2023/01/07 01:32:28;;;;;;;6.73;6.13;;;4.90;20.40;;;;;;4993615;28;20948;-56
2023/01/07 01:34:56;;;;;;;6.00;5.57;;;4.90;20.50;;;;;;4992031;28;20467;-54
2023/01/07 01:37:23;;;;;;;6.60;6.00;;;4.90;21.70;;;;;;4994477;28;20622;-56
2023/01/07 01:39:49;;;;;;;6.83;6.20;;;4.90;22.50;;;;;;4994432;28;21025;-56
2023/01/07 01:42:21;;;;;;;5.93;5.33;;;5.00;24.50;;;;;;5000368;28;20521;-55
2023/01/07 01:44:50;;;;;;;4.70;4.40;;;5.00;24.60;;;;;;5000024;28;20462;-55
2023/01/07 01:47:20;;;;;;;5.27;4.83;;;5.00;24.00;;;;;;4990924;28;20843;-55
2023/01/07 01:49:52;;;;;;;5.70;5.30;;;5.00;23.50;;;;;;4992577;28;20524;-56
2023/01/07 01:52:24;;;;;;;5.10;4.70;;;5.00;23.00;;;;;;4998882;28;20455;-56
2023/01/07 01:54:55;;;;;;;5.27;4.70;;;5.00;21.10;;;;;;5003293;28;20460;-56
2023/01/07 01:57:22;;;;;;;6.23;5.73;;;5.00;21.20;;;;;;5001453;28;20510;-55
2023/01/07 01:59:51;;;;;;;5.70;5.20;;;5.00;22.60;;;;;;5003881;28;20930;-55
2023/01/07 02:02:25;;;;;;;6.90;6.07;;;4.90;22.60;;;;;;4998113;28;20463;-55
2023/01/07 02:04:53;;;;;;;6.40;5.80;;;5.00;23.70;;;;;;4996399;28;20444;-55
2023/01/07 02:07:21;;;;;;;7.30;4.90;;;5.00;25.90;;;;;;4997837;28;20830;-55
2023/01/07 02:09:54;;;;;;;5.60;5.20;;;5.00;24.90;;;;;;4998968;28;20460;-55
2023/01/07 02:12:32;;;;;;;6.27;5.33;;;4.90;24.20;;;;;;4991551;28;20973;-55
2023/01/07 02:15:09;;;;;;;7.53;6.47;;;5.00;25.00;;;;;;4988260;28;20471;-55
2023/01/07 02:17:46;;;;;;;5.53;5.03;;;5.10;27.40;;;;;;4999333;28;20487;-56
2023/01/07 02:20:34;;;;;;;5.10;4.80;;;5.20;28.60;;;;;;5002684;28;20858;-55
2023/01/07 02:23:27;;;;;;;5.67;5.20;;;5.30;27.90;;;;;;4995871;28;20472;-55
2023/01/07 02:26:25;;;;;;;4.77;4.47;;;5.20;25.80;;;;;;4986777;28;20538;-55
2023/01/07 02:29:20;;;;;;;6.07;4.67;;;5.20;24.70;;;;;;5011013;28;20520;-55
2023/01/07 02:32:05;;;;;;;4.60;4.30;;;5.20;22.20;;;;;;4994724;28;20886;-52
2023/01/07 02:34:38;;;;;;;5.03;4.73;;;5.10;22.30;;;;;;4993851;28;20513;-52
2023/01/07 02:37:12;;;;;;;4.30;4.10;;;5.10;20.60;;;;;;4996899;28;20546;-52
2023/01/07 02:39:50;;;;;;;6.10;4.80;;;5.10;26.10;;;;;;4990890;28;20459;-57
2023/01/07 02:42:25;;;;;;;4.60;4.40;;;5.10;23.90;;;;;;4999728;28;20499;-52
2023/01/07 02:45:01;;;;;;;4.93;4.63;;;5.00;23.50;;;;;;4999367;28;20977;-52
2023/01/07 02:47:34;;;;;;;6.57;4.00;;;4.90;21.00;;;;;;4988963;28;20850;-52
2023/01/07 02:50:01;;;;;;;4.30;4.00;;;5.10;27.70;;;;;;4993518;28;20519;-51
2023/01/07 02:52:31;;;;;;;4.80;4.50;;;5.10;26.20;;;;;;4992724;28;20485;-52
2023/01/07 02:55:01;;;;;;;7.20;5.70;;;5.00;25.00;;;;;;5005099;28;20466;-51
2023/01/07 02:57:44;;;;;;;7.60;5.90;;;5.00;25.00;;;;;;5002654;28;20484;-53
2023/01/07 03:00:21;;;;;;;6.17;5.60;;;5.10;25.30;;;;;;4988380;28;20460;-53
2023/01/07 03:03:17;;;;;;;5.87;5.47;;;5.10;25.50;;;;;;4989758;28;20467;-52
2023/01/07 03:05:53;;;;;;;4.37;4.07;;;5.20;24.70;;;;;;4984352;28;20511;-52
2023/01/07 03:08:34;;;;;;;4.87;4.40;;;5.10;23.50;;;;;;4990217;28;20483;-53
2023/01/07 03:11:03;;;;;;;5.17;4.60;;;5.10;23.90;;;;;;4994663;28;20467;-52
2023/01/07 03:13:36;;;;;;;6.80;5.63;;;5.10;23.10;;;;;;5001025;28;20464;-52
2023/01/07 03:16:06;;;;;;;7.50;5.30;;;5.00;22.90;;;;;;5002417;28;20557;-52
2023/01/07 03:18:38;;;;;;;4.20;3.80;;;5.10;24.00;;;;;;4990468;28;20510;-51
2023/01/07 03:21:08;;;;;;;4.40;4.10;;;5.00;24.40;;;;;;4992030;28;20499;-52
2023/01/07 03:23:39;;;;;;;7.50;4.23;;;5.00;24.50;;;;;;5001913;28;20477;-51
2023/01/07 03:26:07;;;;;;;3.80;3.60;;;4.90;23.40;;;;;;5000139;28;20531;-53
2023/01/07 03:28:39;;;;;;;3.87;3.67;;;4.90;25.00;;;;;;5007089;28;20507;-52
2023/01/07 03:31:09;;;;;;;4.60;4.30;;;5.00;26.80;;;;;;4990190;28;20574;-52
2023/01/07 03:33:41;;;;;;;5.00;4.50;;;5.10;26.80;;;;;;4992400;28;20809;-52
2023/01/07 03:36:12;;;;;;;5.20;4.70;;;5.10;27.30;;;;;;4996784;28;20464;-52
2023/01/07 03:38:42;;;;;;;4.60;4.27;;;5.30;31.10;;;;;;5003829;28;20467;-51
2023/01/07 03:42:38;;;;;;;4.40;4.00;;;5.40;30.40;;;;;;5006230;28;20467;-51
2023/01/07 03:43:55;;;;;;;9.10;4.90;;;5.50;28.70;;;;;;4994474;28;20553;-51
2023/01/07 03:46:21;;;;;;;5.47;4.97;;;5.60;28.40;;;;;;4993013;28;20578;-53
2023/01/07 03:48:49;;;;;;;4.13;3.83;;;5.60;26.70;;;;;;4985248;28;20263;-52
2023/01/07 03:51:16;;;;;;;5.57;3.77;;;5.60;25.50;;;;;;5002839;22;20502;-54
2023/01/07 03:53:42;;;;;;;5.33;4.03;;;5.60;26.00;;;;;;4999698;28;20471;-55
2023/01/07 03:56:09;;;;;;;4.70;4.40;;;5.60;24.60;;;;;;4997407;28;20463;-56
2023/01/07 03:58:35;;;;;;;5.00;4.50;;;5.50;24.10;;;;;;4990734;28;20459;-55
2023/01/07 04:01:02;;;;;;;5.27;4.77;;;5.50;23.90;;;;;;4990062;28;20482;-54
2023/01/07 04:03:28;;;;;;;5.27;4.23;;;5.40;22.70;;;;;;4988562;28;20464;-56
2023/01/07 04:05:56;;;;;;;4.00;3.70;;;5.30;22.00;;;;;;4989553;28;20988;-53
2023/01/07 04:08:23;;;;;;;4.90;4.37;;;5.10;21.50;;;;;;4989412;28;20492;-56
2023/01/07 04:10:49;;;;;;;4.20;3.90;;;5.00;22.60;;;;;;4989869;28;20525;-53
2023/01/07 04:13:16;;;;;;;4.80;4.30;;;4.90;22.50;;;;;;4989614;28;20503;-55
2023/01/07 04:15:43;;;;;;;5.00;3.70;;;4.80;23.80;;;;;;4989835;28;20500;-55
2023/01/07 04:18:10;;;;;;;4.03;3.73;;;4.80;24.60;;;;;;4986737;28;20954;-55
2023/01/07 04:20:36;;;;;;;4.13;3.93;;;4.80;25.40;;;;;;4990329;28;20487;-53
2023/01/07 04:23:04;;;;;;;4.77;3.93;;;4.70;26.00;;;;;;4985029;28;20492;-55
2023/01/07 04:25:31;;;;;;;4.30;4.00;;;4.70;26.40;;;;;;4988393;28;20471;-54
2023/01/07 04:27:57;;;;;;;4.03;3.83;;;4.70;27.10;;;;;;4990159;28;20551;-55
2023/01/07 04:30:24;;;;;;;4.03;3.70;;;4.70;27.50;;;;;;4984459;28;20468;-55
2023/01/07 04:32:51;;;;;;;4.47;4.17;;;4.60;26.90;;;;;;4986754;28;20475;-55
2023/01/07 04:35:17;;;;;;;4.00;3.80;;;4.50;25.60;;;;;;4987603;28;20467;-55
2023/01/07 04:37:44;;;;;;;3.97;3.77;;;4.50;25.80;;;;;;4987917;28;20464;-55
2023/01/07 04:40:12;;;;;;;7.87;3.77;;;4.40;26.10;;;;;;4989756;28;20472;-55
2023/01/07 04:42:39;;;;;;;5.20;4.10;;;4.40;26.70;;;;;;4987166;28;20899;-56
2023/01/07 04:45:06;;;;;;;5.77;3.90;;;4.50;26.90;;;;;;4988954;28;21035;-55
2023/01/07 04:47:33;;;;;;;4.97;4.00;;;4.50;27.60;;;;;;4987861;28;20853;-55
2023/01/07 04:50:00;;;;;;;4.50;3.10;;;4.50;27.40;;;;;;4992067;28;20447;-56
2023/01/07 04:52:26;;;;;;;4.47;4.13;;;4.60;25.40;;;;;;4986319;28;21084;-53
2023/01/07 04:54:53;;;;;;;3.43;3.23;;;4.60;26.70;;;;;;4994482;28;20907;-54
2023/01/07 04:57:20;;;;;;;4.13;3.87;;;4.70;26.50;;;;;;4993921;28;20463;-56
2023/01/07 04:59:47;;;;;;;4.27;3.50;;;4.70;25.80;;;;;;4992749;28;20462;-54
2023/01/07 05:02:14;;;;;;;3.47;3.27;;;4.80;25.90;;;;;;4993348;28;20620;-53
2023/01/07 05:04:40;;;;;;;4.13;3.93;;;4.90;26.40;;;;;;4994541;28;20794;-54
2023/01/07 05:07:07;;;;;;;4.27;3.97;;;4.90;26.60;;;;;;4993675;28;20864;-54
2023/01/07 05:09:34;;;;;;;3.40;3.20;;;5.00;26.90;;;;;;4990454;28;20475;-54
2023/01/07 05:12:00;;;;;;;4.43;4.10;;;5.10;26.70;;;;;;4993509;28;20488;-53
2023/01/07 05:14:28;;;;;;;4.57;4.27;;;5.20;27.90;;;;;;4991682;28;20487;-54
2023/01/07 05:16:54;;;;;;;5.37;4.97;;;5.50;28.80;;;;;;4994119;28;20448;-54
2023/01/07 05:19:21;;;;;;;6.70;6.10;;;5.60;30.70;;;;;;4993509;28;20526;-54
2023/01/07 05:21:48;;;;;;;5.67;5.17;;;5.80;30.50;;;;;;4993248;28;20494;-54
2023/01/07 05:24:15;;;;;;;6.77;6.27;;;5.90;30.40;;;;;;4992676;28;20467;-55
2023/01/07 05:26:41;;;;;;;6.60;6.00;;;6.00;28.70;;;;;;4991462;28;20579;-54
2023/01/07 05:29:09;;;;;;;6.23;5.73;;;6.10;28.70;;;;;;4992708;28;20515;-54
2023/01/07 05:31:37;;;;;;;7.00;6.33;;;6.10;28.50;;;;;;4990495;28;20562;-54
2023/01/07 05:34:04;;;;;;;7.50;6.47;;;6.20;27.40;;;;;;4992480;28;20460;-55
2023/01/07 05:36:30;;;;;;;7.57;6.87;;;6.20;27.00;;;;;;4994130;28;20518;-54
2023/01/07 05:38:57;;;;;;;7.00;6.43;;;6.30;26.70;;;;;;4993439;28;20514;-56
2023/01/07 05:41:23;;;;;;;7.57;6.60;;;6.30;26.70;;;;;;4992297;28;20488;-55
2023/01/07 05:43:50;;;;;;;6.77;6.17;;;6.30;26.20;;;;;;4991912;28;20499;-55
2023/01/07 05:46:17;;;;;;;7.00;6.40;;;6.30;25.20;;;;;;4991354;28;20859;-54
2023/01/07 05:48:45;;;;;;;7.27;6.57;;;6.30;25.00;;;;;;4989087;28;20498;-54
2023/01/07 05:51:12;;;;;;;7.23;6.50;;;6.30;26.10;;;;;;4989660;28;20527;-54
2023/01/07 05:53:38;;;;;;;7.57;6.87;;;6.40;26.10;;;;;;4993182;28;20464;-55
2023/01/07 05:56:05;;;;;;;7.90;7.20;;;6.40;25.30;;;;;;4993012;28;20546;-55
2023/01/07 05:58:32;;;;;;;8.00;7.30;;;6.50;26.30;;;;;;4985585;28;20464;-54
2023/01/07 06:00:58;;;;;;;8.10;7.00;;;6.50;26.40;;;;;;4990820;28;20592;-53
2023/01/07 06:03:25;;;;;;;6.70;6.10;;;6.50;25.70;;;;;;4991840;28;21031;-54
2023/01/07 06:05:53;;;;;;;6.33;5.80;;;6.50;24.40;;;;;;4991772;28;20468;-55
2023/01/07 06:08:19;;;;;;;7.57;6.80;;;6.50;24.10;;;;;;4991314;28;20912;-55
2023/01/07 06:10:46;;;;;;;7.73;6.40;;;6.40;23.10;;;;;;4992947;28;20516;-53
2023/01/07 06:13:12;;;;;;;6.80;6.23;;;6.40;22.00;;;;;;4996429;28;21027;-56
2023/01/07 06:15:39;;;;;;;6.63;6.03;;;6.30;22.60;;;;;;4989853;28;20504;-55
2023/01/07 06:18:06;;;;;;;8.20;6.03;;;6.30;22.70;;;;;;4990629;28;20515;-55
2023/01/07 06:20:33;;;;;;;6.80;6.20;;;6.30;22.80;;;;;;4992522;28;20542;-55
2023/01/07 06:23:03;;;;;;;10.67;6.33;;;6.30;21.90;;;;;;4992405;28;20472;-54
2023/01/07 06:25:30;;;;;;;6.67;6.17;;;6.30;22.20;;;;;;4989797;28;20551;-55
2023/01/07 06:27:57;;;;;;;6.90;6.30;;;6.30;23.40;;;;;;4988588;28;21068;-55
2023/01/07 06:30:23;;;;;;;8.43;7.63;;;6.40;22.70;;;;;;4987795;28;20471;-56
2023/01/07 06:32:50;;;;;;;10.00;7.63;;;6.40;23.60;;;;;;4992036;28;20536;-56
2023/01/07 06:35:17;;;;;;;8.50;7.80;;;6.40;24.30;;;;;;4989413;28;20500;-56
2023/01/07 06:37:43;;;;;;;9.90;8.03;;;6.50;24.60;;;;;;4992683;28;20460;-55
2023/01/07 06:40:12;;;;;;;6.73;6.23;;;6.50;24.80;;;;;;4985640;28;20463;-55
2023/01/07 06:42:39;;;;;;;8.30;7.50;;;6.60;24.90;;;;;;4988854;28;20555;-54
2023/01/07 06:45:06;;;;;;;8.60;7.90;;;6.60;24.90;;;;;;4985643;28;20544;-55
2023/01/07 06:47:33;;;;;;;8.30;7.60;;;6.60;25.30;;;;;;4990461;28;20574;-55
2023/01/07 06:49:59;;;;;;;12.20;11.00;;;6.60;25.20;;;;;;4988462;28;20468;-54
2023/01/07 06:52:26;;;;;;;30.20;25.20;;;6.70;26.10;;;;;;4988859;28;20531;-55
2023/01/07 06:54:52;;;;;;;28.53;23.00;;;6.70;26.20;;;;;;4991571;28;20465;-54
2023/01/07 06:57:20;;;;;;;44.27;37.10;;;6.70;26.10;;;;;;4981789;28;20460;-54
2023/01/07 06:59:47;;;;;;;16.40;14.70;;;6.70;26.00;;;;;;4989218;28;20464;-54
2023/01/07 07:02:18;;;;;;;34.60;31.20;;;6.80;26.50;;;;;;4986670;28;20573;-56
2023/01/07 07:04:45;;;;;;;12.30;11.13;;;6.80;26.70;;;;;;4988119;28;20957;-56
2023/01/07 07:07:12;;;;;;;11.43;10.40;;;6.80;27.10;;;;;;4990723;28;20520;-54
2023/01/07 07:09:39;;;;;;;13.50;12.30;;;6.80;26.70;;;;;;4986147;28;20492;-54
2023/01/07 07:12:06;;;;;;;8.57;7.67;;;6.90;28.00;;;;;;4990491;28;20488;-54
2023/01/07 07:14:34;;;;;;;8.83;8.07;;;6.90;27.60;;;;;;4989313;28;20504;-56
2023/01/07 07:17:00;;;;;;;10.40;9.43;;;6.90;27.10;;;;;;4989302;28;20459;-54
2023/01/07 07:19:27;;;;;;;8.80;8.00;;;7.00;27.00;;;;;;4991700;28;20464;-56
2023/01/07 07:21:53;;;;;;;8.80;8.00;;;7.00;27.10;;;;;;4985711;28;20985;-54
2023/01/07 07:24:20;;;;;;;9.60;8.70;;;7.00;26.60;;;;;;4983983;28;20935;-56
2023/01/07 07:26:47;;;;;;;8.97;8.17;;;7.00;26.60;;;;;;4982326;28;20471;-55
2023/01/07 07:29:13;;;;;;;11.23;8.90;;;7.00;25.60;;;;;;4990619;28;20495;-54
2023/01/07 07:31:41;;;;;;;10.43;9.50;;;6.90;25.20;;;;;;4988979;28;21043;-55
2023/01/07 07:34:09;;;;;;;9.03;8.23;;;6.90;25.70;;;;;;4986781;28;20499;-54
2023/01/07 07:36:36;;;;;;;10.50;8.47;;;6.90;25.70;;;;;;4989606;28;20523;-55
2023/01/07 07:39:02;;;;;;;9.03;8.23;;;6.90;26.30;;;;;;4989484;28;20468;-55
2023/01/07 07:41:29;;;;;;;10.13;8.10;;;7.00;26.20;;;;;;4987254;28;20487;-57
2023/01/07 07:43:56;;;;;;;9.70;8.67;;;7.00;26.50;;;;;;4986978;28;20534;-54
2023/01/07 07:46:22;;;;;;;10.20;8.80;;;7.00;26.90;;;;;;4989925;28;20468;-54
2023/01/07 07:48:50;;;;;;;10.87;8.63;;;7.00;26.70;;;;;;4985313;28;21226;-54
2023/01/07 07:51:17;;;;;;;9.00;8.20;;;7.00;26.50;;;;;;4989473;28;20562;-53
2023/01/07 07:53:44;;;;;;;11.20;8.50;;;7.00;26.50;;;;;;4986580;28;20495;-54
2023/01/07 07:56:10;;;;;;;7.77;7.17;;;7.00;26.60;;;;;;4989383;28;20464;-54
2023/01/07 07:58:37;;;;;;;8.67;7.93;;;7.10;26.50;;;;;;4987617;28;20970;-55
2023/01/07 08:01:04;;;;;;;8.33;7.57;;;7.10;26.40;;;;;;4986249;28;20910;-55
2023/01/07 08:03:30;;;;;;;8.60;7.80;;;7.10;26.90;;;;;;4987368;28;20942;-54
2023/01/07 08:05:58;;;;;;;8.30;7.60;;;7.10;25.00;;;;;;4988337;28;20521;-55
2023/01/07 08:08:25;;;;;;;7.90;7.20;;;7.10;26.70;;;;;;4983391;28;21011;-55
2023/01/07 08:10:54;;;;;;;8.00;7.28;;;7.20;26.40;;;;;;4989082;28;20464;-55
2023/01/07 08:13:21;;;;;;;7.53;6.83;;;7.10;26.30;;;;;;4988885;28;20260;-54
2023/01/07 08:15:48;;;;;;;7.83;7.13;;;7.20;26.70;;;;;;4984667;28;20467;-55
2023/01/07 08:18:15;;;;;;;11.03;8.10;;;7.20;26.80;;;;;;4989497;28;20460;-55
2023/01/07 08:20:41;;;;;;;7.77;7.07;;;7.20;27.00;;;;;;4990701;28;20479;-55
2023/01/07 08:23:09;;;;;;;7.90;7.30;;;7.30;27.00;;;;;;4988038;28;20941;-56
2023/01/07 08:25:36;;;;;;;7.77;7.07;;;7.30;26.50;;;;;;4991555;28;20888;-56
2023/01/07 08:28:03;;;;;;;7.67;7.00;;;7.30;26.20;;;;;;4990945;28;20516;-55
2023/01/07 08:30:30;;;;;;;7.20;6.63;;;7.40;25.80;;;;;;4991259;28;20807;-54
2023/01/07 08:32:57;;;;;;;8.07;7.27;;;7.40;26.40;;;;;;4989530;28;20480;-56
2023/01/07 08:35:24;;;;;;;9.57;7.60;;;7.40;25.90;;;;;;4990943;28;20523;-56
2023/01/07 08:37:51;;;;;;;8.63;7.63;;;7.40;25.40;;;;;;4993142;28;20934;-56
2023/01/07 08:40:19;;;;;;;7.00;6.40;;;7.40;25.10;;;;;;4989074;28;20462;-55
2023/01/07 08:42:45;;;;;;;6.83;6.13;;;7.50;25.10;;;;;;4992742;28;20469;-55
2023/01/07 08:45:12;;;;;;;6.63;6.10;;;7.50;24.90;;;;;;4992581;28;20530;-55
2023/01/07 08:47:38;;;;;;;6.70;6.10;;;7.50;24.60;;;;;;4986646;28;20479;-55
2023/01/07 08:50:06;;;;;;;6.90;6.30;;;7.50;24.20;;;;;;4991299;28;20478;-55
2023/01/07 08:52:32;;;;;;;7.30;6.13;;;7.60;22.90;;;;;;4991223;28;20491;-54
2023/01/07 08:54:59;;;;;;;6.97;6.17;;;7.70;22.60;;;;;;4990955;28;20464;-54
2023/01/07 08:57:27;;;;;;;6.47;5.87;;;7.70;21.60;;;;;;4988782;28;20544;-55
2023/01/07 08:59:53;;;;;;;7.90;7.20;;;7.70;21.10;;;;;;4985194;28;20487;-52
2023/01/07 09:02:20;;;;;;;8.07;6.77;;;7.70;71.60;;;;;;4989152;28;20516;-52
2023/01/07 09:04:47;;;;;;;7.20;6.60;;;7.80;78.00;;;;;;4991651;28;20902;-52
2023/01/07 09:07:13;;;;;;;6.60;5.97;;;7.80;83.90;;;;;;4994142;28;20468;-52
2023/01/07 09:09:41;;;;;;;6.37;5.77;;;7.90;85.70;;;;;;4995628;28;20513;-52
2023/01/07 09:12:08;;;;;;;6.93;6.33;;;7.90;94.60;;;;;;4991193;28;20584;-52
2023/01/07 09:14:36;;;;;;;6.90;6.30;;;7.90;99.90;;;;;;4995176;28;20873;-52
2023/01/07 09:17:03;;;;;;;9.37;6.43;;;8.00;99.90;;;;;;4992529;28;20468;-52
2023/01/07 09:19:29;;;;;;;6.20;5.60;;;7.90;99.90;;;;;;4996616;28;20556;-52
2023/01/07 09:21:56;;;;;;;7.07;6.43;;;8.00;99.90;;;;;;4994027;28;20510;-52
2023/01/07 09:24:23;;;;;;;6.80;6.20;;;8.00;99.90;;;;;;4994558;28;20454;-51
2023/01/07 09:26:49;;;;;;;5.67;5.27;;;8.00;99.90;;;;;;4991206;28;20489;-52
2023/01/07 09:29:16;;;;;;;6.90;6.30;;;8.00;99.90;;;;;;4988721;28;20495;-51
2023/01/07 09:31:44;;;;;;;6.53;5.90;;;8.00;99.90;;;;;;4993164;28;20554;-51
2023/01/07 09:34:10;;;;;;;7.47;5.93;;;8.10;99.90;;;;;;4989554;28;20528;-52
2023/01/07 09:36:37;;;;;;;6.27;5.67;;;8.10;99.90;;;;;;4985464;28;20492;-52
2023/01/07 09:39:04;;;;;;;5.93;4.70;;;8.10;99.90;;;;;;4987291;28;20495;-52
2023/01/07 09:41:39;;;;;;;6.07;5.50;;;8.10;99.90;;;;;;4988596;28;20479;-52
2023/01/07 09:44:15;;;;;;;5.93;5.43;;;8.20;99.90;;;;;;4985826;28;20463;-52
2023/01/07 09:46:47;;;;;;;5.30;4.90;;;8.20;99.90;;;;;;4989810;28;20555;-52
2023/01/07 09:49:18;;;;;;;6.00;5.60;;;8.30;99.90;;;;;;4990652;28;20534;-52
2023/01/07 09:51:48;;;;;;;5.83;5.33;;;8.30;99.90;;;;;;4987359;28;20501;-52
2023/01/07 09:54:24;;;;;;;6.00;5.40;;;8.30;99.90;;;;;;4988097;28;20464;-52
2023/01/07 09:56:51;;;;;;;5.60;5.13;;;8.40;99.90;;;;;;4984632;28;20499;-52
2023/01/07 09:59:18;;;;;;;6.20;5.60;;;8.40;99.90;;;;;;4987591;28;20522;-51
2023/01/07 10:01:50;;;;;;;6.00;5.50;;;8.50;99.90;;;;;;4984838;28;20566;-51
2023/01/07 10:04:28;;;;;;;5.10;4.60;;;8.60;99.90;;;;;;4984507;28;20468;-52
2023/01/07 10:07:02;;;;;;;5.50;5.10;;;8.60;99.90;;;;;;4987778;28;20836;-51
2023/01/07 10:09:35;;;;;;;5.23;4.83;;;8.70;99.90;;;;;;4988909;28;20542;-52
2023/01/07 10:12:11;;;;;;;5.37;4.97;;;8.70;99.90;;;;;;4989667;28;20562;-52
2023/01/07 10:15:05;;;;;;;6.63;4.80;;;8.70;99.90;;;;;;4990420;28;20495;-52
2023/01/07 10:17:45;;;;;;;7.20;5.10;;;8.70;99.90;;;;;;4988199;28;20881;-52
2023/01/07 10:20:19;;;;;;;4.50;4.20;;;8.70;99.90;;;;;;4981923;28;20464;-51
2023/01/07 10:22:50;;;;;;;5.47;5.07;;;8.70;99.90;;;;;;4987593;28;20492;-51
2023/01/07 10:25:21;;;;;;;4.57;4.23;;;8.80;99.90;;;;;;4982900;28;20503;-51
2023/01/07 10:27:51;;;;;;;5.80;5.30;;;8.80;99.90;;;;;;4983411;28;20495;-52
2023/01/07 10:30:21;;;;;;;4.80;4.40;;;8.90;99.90;;;;;;4984324;28;20520;-52
2023/01/07 10:32:54;;;;;;;5.37;4.63;;;8.90;99.90;;;;;;4987108;28;20907;-52
2023/01/07 10:35:23;;;;;;;5.20;4.80;;;8.90;99.90;;;;;;4985913;28;20466;-52
2023/01/07 10:37:50;;;;;;;4.83;4.50;;;8.90;99.90;;;;;;4990549;28;20461;-51
2023/01/07 10:40:27;;;;;;;4.50;4.20;;;8.90;99.90;;;;;;4984813;28;20517;-51
2023/01/07 10:43:00;;;;;;;4.80;4.23;;;8.90;99.90;;;;;;4982784;28;20468;-52
2023/01/07 10:45:44;;;;;;;4.23;3.93;;;8.80;99.90;;;;;;4989237;28;20475;-51
2023/01/07 10:48:52;;;;;;;4.30;4.00;;;8.90;99.90;;;;;;4984601;28;20490;-52
2023/01/07 10:51:38;;;;;;;5.13;4.70;;;9.00;99.90;;;;;;4939183;28;20565;-51
2023/01/07 10:54:20;;;;;;;5.23;4.80;;;9.00;99.90;;;;;;4987307;28;20468;-51
2023/01/07 10:56:52;;;;;;;5.00;4.60;;;9.10;99.90;;;;;;4983223;28;20521;-51
2023/01/07 10:59:20;;;;;;;4.20;3.80;;;9.20;99.90;;;;;;4983076;28;20515;-51
2023/01/07 11:01:52;;;;;;;4.97;4.57;;;9.30;99.90;;;;;;4985246;28;20596;-54
2023/01/07 11:04:20;;;;;;;4.70;4.40;;;9.30;99.90;;;;;;4985781;28;20531;-52
2023/01/07 11:06:52;;;;;;;4.63;4.23;;;9.30;99.90;;;;;;4987826;28;20535;-52
2023/01/07 11:09:22;;;;;;;4.80;4.40;;;9.40;99.90;;;;;;4986042;28;20536;-51
2023/01/07 11:11:50;;;;;;;4.23;3.93;;;9.30;99.90;;;;;;4985894;28;20503;-51
2023/01/07 11:14:21;;;;;;;4.73;4.00;;;9.40;99.90;;;;;;4987972;28;20502;-51
2023/01/07 11:16:52;;;;;;;4.50;4.10;;;9.40;99.90;;;;;;4989133;28;20468;-51
2023/01/07 11:19:22;;;;;;;3.53;3.33;;;9.40;99.90;;;;;;4992672;28;20498;-51
2023/01/07 11:21:50;;;;;;;4.73;4.33;;;9.30;99.90;;;;;;4995598;28;20580;-51
2023/01/07 11:24:30;;;;;;;4.17;3.87;;;9.40;99.90;;;;;;4988454;28;20560;-51
2023/01/07 11:27:01;;;;;;;4.20;3.80;;;9.40;99.90;;;;;;4988128;28;20868;-52
2023/01/07 11:29:33;;;;;;;4.00;3.70;;;9.40;99.90;;;;;;4990602;28;20487;-52
2023/01/07 11:32:02;;;;;;;4.30;4.00;;;9.40;99.90;;;;;;4992045;28;20492;-53
2023/01/07 11:34:34;;;;;;;3.50;3.30;;;9.40;99.90;;;;;;4990968;28;20526;-53
2023/01/07 11:37:01;;;;;;;3.53;3.33;;;9.40;99.90;;;;;;4991780;28;20471;-52
2023/01/07 11:39:30;;;;;;;2.57;2.47;;;9.30;99.90;;;;;;4984413;28;20491;-51
2023/01/07 11:41:58;;;;;;;4.07;3.33;;;9.30;99.90;;;;;;4984044;28;20499;-51
2023/01/07 11:44:26;;;;;;;4.23;3.43;;;9.30;99.90;;;;;;4989402;28;20579;-53
2023/01/07 11:46:54;;;;;;;5.40;3.50;;;9.30;99.90;;;;;;4986681;28;20494;-53
2023/01/07 11:49:24;;;;;;;5.13;3.23;;;9.30;99.90;;;;;;4987216;28;20511;-51
2023/01/07 11:51:53;;;;;;;4.30;4.00;;;9.30;99.90;;;;;;4985617;28;20886;-51
2023/01/07 11:54:22;;;;;;;3.90;3.50;;;9.30;99.90;;;;;;4988899;28;20467;-51
2023/01/07 11:56:49;;;;;;;3.50;3.10;;;9.30;99.90;;;;;;4990369;28;20489;-51
2023/01/07 11:59:29;;;;;;;3.90;3.60;;;9.40;99.90;;;;;;4991247;28;20461;-52
2023/01/07 12:01:59;;;;;;;3.00;2.80;;;9.40;99.90;;;;;;5003419;28;20486;-53
2023/01/07 12:04:27;;;;;;;2.83;2.63;;;9.60;99.90;;;;;;4995071;28;20467;-51
2023/01/07 12:06:57;;;;;;;3.80;2.87;;;9.80;99.90;;;;;;4996020;28;20458;-50
2023/01/07 12:09:37;;;;;;;3.23;2.97;;;9.80;99.90;;;;;;4993852;28;20489;-51
2023/01/07 12:12:33;;;;;;;2.60;2.40;;;9.90;99.90;;;;;;4995156;28;21027;-51
2023/01/07 12:15:02;;;;;;;3.00;2.80;;;9.90;99.90;;;;;;4997627;28;20559;-51
2023/01/07 12:17:33;;;;;;;3.13;2.93;;;10.00;89.60;;;;;;4989206;28;20467;-50
2023/01/07 12:20:20;;;;;;;3.70;3.40;;;10.00;79.70;;;;;;4992074;28;20463;-51
2023/01/07 12:22:56;;;;;;;3.57;2.60;;;10.00;99.90;;;;;;4990156;28;20512;-51
2023/01/07 12:25:32;;;;;;;2.90;2.70;;;9.80;84.70;;;;;;4991005;28;20467;-51
2023/01/07 12:28:09;;;;;;;2.57;2.47;;;9.80;89.70;;;;;;4989042;28;20925;-51
2023/01/07 12:31:03;;;;;;;2.97;2.57;;;9.70;99.90;;;;;;4986715;28;20483;-51
2023/01/07 12:33:50;;;;;;;2.60;2.40;;;9.80;99.90;;;;;;4990383;28;20464;-51
2023/01/07 12:36:25;;;;;;;2.40;2.30;;;9.80;99.90;;;;;;4991977;28;20499;-53
2023/01/07 12:38:59;;;;;;;2.40;2.30;;;9.80;99.90;;;;;;4989507;28;20542;-52
2023/01/07 12:41:31;;;;;;;8.20;2.57;;;9.80;97.40;;;;;;4987140;28;20534;-52
2023/01/07 12:44:02;;;;;;;2.33;2.23;;;9.80;83.40;;;;;;4985702;28;21073;-52
2023/01/07 12:46:35;;;;;;;2.13;2.00;;;10.10;20.30;;;;;;4983309;28;20998;-51
2023/01/07 12:49:05;;;;;;;1.97;1.80;;;10.20;26.40;;;;;;4987384;28;20519;-51
2023/01/07 12:51:38;;;;;;;2.63;1.90;;;10.50;37.50;;;;;;4988959;28;20502;-52
2023/01/07 12:54:15;;;;;;;2.80;1.80;;;10.40;50.50;;;;;;4990851;28;20475;-52
2023/01/07 12:56:47;;;;;;;1.80;1.70;;;10.30;54.30;;;;;;4988845;28;20491;-53
2023/01/07 12:59:21;;;;;;;2.10;2.00;;;10.30;46.30;;;;;;4989961;28;20467;-51
2023/01/07 13:01:54;;;;;;;2.57;2.37;;;10.20;45.10;;;;;;4989564;28;21348;-51
2023/01/07 13:04:41;;;;;;;2.07;1.97;;;10.20;41.90;;;;;;4987318;28;20472;-51
2023/01/07 13:07:15;;;;;;;3.30;2.30;;;10.20;42.70;;;;;;4991651;28;21040;-51
2023/01/07 13:09:50;;;;;;;2.00;1.90;;;10.20;43.50;;;;;;4988132;28;20487;-51